Time;durP1;ratioP1;P1;durP2;ratioP2;P2;SDS_P1;SDS_P2;PMS_P1;PMS_P2;Temp;Humidity;BMP_temperature;BMP_pressure;BME280_temperature;BME280_humidity;BME280_pressure;Samples;Min_cycle;Max_cycle;Signal;HPM_P1;HPM_P2
2023/11/20 00:00:12;;;;;;;6.63;4.50;;;;;;;;;;344047;28;1301;-58
2023/11/20 00:00:24;;;;;;;6.25;4.30;;;;;;;;;;343510;28;1604;-57
2023/11/20 00:00:35;;;;;;;6.15;4.35;;;;;;;;;;343889;28;1342;-58
2023/11/20 00:00:46;;;;;;;5.93;4.35;;;;;;;;;;345020;28;1321;-58
2023/11/20 00:00:57;;;;;;;6.25;4.22;;;;;;;;;;345749;28;1845;-58
2023/11/20 00:01:08;;;;;;;6.25;4.25;;;;;;;;;;342612;28;1742;-57
2023/11/20 00:01:23;;;;;;;7.13;4.35;;;;;;;;;;342545;28;1991;-57
2023/11/20 00:01:34;;;;;;;7.05;4.60;;;;;;;;;;344853;28;1583;-57
2023/11/20 00:01:46;;;;;;;6.70;4.53;;;;;;;;;;345183;28;1628;-57
2023/11/20 00:01:57;;;;;;;6.65;4.35;;;;;;;;;;345167;28;1644;-58
2023/11/20 00:02:08;;;;;;;6.18;4.07;;;;;;;;;;343852;28;1496;-58
2023/11/20 00:02:19;;;;;;;5.47;3.90;;;;;;;;;;345085;28;1301;-58
2023/11/20 00:02:30;;;;;;;5.47;3.90;;;;;;;;;;346622;28;1272;-58
2023/11/20 00:02:42;;;;;;;5.95;3.95;;;;;;;;;;346444;28;1501;-58
2023/11/20 00:02:53;;;;;;;5.95;4.07;;;;;;;;;;346409;28;1681;-58
2023/11/20 00:03:04;;;;;;;5.88;3.95;;;;;;;;;;343785;28;1341;-58
2023/11/20 00:03:15;;;;;;;5.95;4.00;;;;;;;;;;343881;28;1266;-58
2023/11/20 00:03:26;;;;;;;6.30;4.03;;;;;;;;;;344275;28;1482;-58
2023/11/20 00:03:38;;;;;;;6.95;4.28;;;;;;;;;;344259;28;1485;-58
2023/11/20 00:03:53;;;;;;;6.97;4.47;;;;;;;;;;345286;28;1352;-58
2023/11/20 00:04:04;;;;;;;7.65;4.50;;;;;;;;;;342443;28;1406;-58
2023/11/20 00:04:15;;;;;;;7.22;4.65;;;;;;;;;;345251;28;1278;-58
2023/11/20 00:04:26;;;;;;;7.18;4.70;;;;;;;;;;345245;28;1677;-57
2023/11/20 00:04:37;;;;;;;6.68;4.28;;;;;;;;;;345226;28;1293;-58
2023/11/20 00:04:48;;;;;;;7.72;4.20;;;;;;;;;;345162;28;922;-58
2023/11/20 00:04:59;;;;;;;6.45;4.13;;;;;;;;;;343633;28;1737;-57
2023/11/20 00:05:10;;;;;;;5.68;4.30;;;;;;;;;;343627;28;1384;-58
2023/11/20 00:05:22;;;;;;;5.47;4.28;;;;;;;;;;341309;29;1310;-57
2023/11/20 00:05:33;;;;;;;5.90;4.30;;;;;;;;;;343936;28;1542;-58
2023/11/20 00:05:44;;;;;;;7.05;4.50;;;;;;;;;;343926;28;1555;-58
2023/11/20 00:05:55;;;;;;;7.65;4.60;;;;;;;;;;343003;28;1600;-58
2023/11/20 00:06:07;;;;;;;7.97;4.50;;;;;;;;;;343815;28;1532;-58
2023/11/20 00:06:18;;;;;;;6.72;4.20;;;;;;;;;;341271;28;1292;-57
2023/11/20 00:06:31;;;;;;;6.82;4.28;;;;;;;;;;343945;28;1524;-57
2023/11/20 00:06:42;;;;;;;7.00;4.13;;;;;;;;;;345053;28;1327;-58
2023/11/20 00:06:53;;;;;;;6.63;4.05;;;;;;;;;;345148;28;1689;-58
2023/11/20 00:07:05;;;;;;;6.93;4.00;;;;;;;;;;343920;28;1518;-58
2023/11/20 00:07:16;;;;;;;7.07;3.97;;;;;;;;;;343735;28;1622;-58
2023/11/20 00:07:27;;;;;;;7.30;3.88;;;;;;;;;;341290;28;1309;-58
2023/11/20 00:07:39;;;;;;;7.63;4.20;;;;;;;;;;342500;28;1108;-58
2023/11/20 00:07:50;;;;;;;6.93;4.25;;;;;;;;;;343833;28;1376;-58
2023/11/20 00:08:02;;;;;;;6.68;4.30;;;;;;;;;;343750;28;1563;-58
2023/11/20 00:08:13;;;;;;;6.45;4.18;;;;;;;;;;343855;28;1571;-58
2023/11/20 00:08:24;;;;;;;6.80;4.25;;;;;;;;;;343553;28;1733;-58
2023/11/20 00:08:35;;;;;;;6.75;4.20;;;;;;;;;;342494;28;1260;-58
2023/11/20 00:08:46;;;;;;;6.50;4.20;;;;;;;;;;339946;29;1303;-58
2023/11/20 00:08:57;;;;;;;6.57;4.20;;;;;;;;;;341148;28;1497;-58
2023/11/20 00:09:08;;;;;;;6.70;4.50;;;;;;;;;;342535;28;1286;-57
2023/11/20 00:09:20;;;;;;;6.78;4.50;;;;;;;;;;343938;28;1301;-58
2023/11/20 00:09:31;;;;;;;6.57;4.57;;;;;;;;;;343869;28;1314;-58
2023/11/20 00:09:42;;;;;;;5.55;4.22;;;;;;;;;;343826;28;1277;-58
2023/11/20 00:09:54;;;;;;;5.35;3.85;;;;;;;;;;342556;28;1422;-58
2023/11/20 00:10:05;;;;;;;6.18;4.10;;;;;;;;;;343726;28;1321;-61
2023/11/20 00:10:18;;;;;;;7.43;4.15;;;;;;;;;;345341;28;1313;-58
2023/11/20 00:10:32;;;;;;;7.13;4.30;;;;;;;;;;345402;28;1418;-59
2023/11/20 00:10:43;;;;;;;6.45;4.40;;;;;;;;;;345138;28;1315;-58
2023/11/20 00:10:54;;;;;;;6.43;4.38;;;;;;;;;;342299;28;1565;-58
2023/11/20 00:11:06;;;;;;;6.15;4.32;;;;;;;;;;343967;28;1573;-59
2023/11/20 00:11:17;;;;;;;6.13;4.57;;;;;;;;;;343794;28;1625;-58
2023/11/20 00:11:28;;;;;;;6.53;4.60;;;;;;;;;;345294;28;1300;-59
2023/11/20 00:11:39;;;;;;;7.00;4.40;;;;;;;;;;346453;28;1510;-58
2023/11/20 00:11:50;;;;;;;7.18;4.50;;;;;;;;;;343838;28;1362;-58
2023/11/20 00:12:02;;;;;;;8.23;4.45;;;;;;;;;;343733;28;1608;-59
2023/11/20 00:12:13;;;;;;;7.63;4.38;;;;;;;;;;343788;28;1002;-58
2023/11/20 00:12:24;;;;;;;7.75;4.20;;;;;;;;;;342531;28;1551;-57
2023/11/20 00:12:35;;;;;;;6.00;3.95;;;;;;;;;;342567;28;1368;-58
2023/11/20 00:12:46;;;;;;;5.90;3.90;;;;;;;;;;345128;28;1400;-58
2023/11/20 00:12:58;;;;;;;5.70;4.15;;;;;;;;;;344394;28;1585;-58
2023/11/20 00:13:09;;;;;;;6.53;4.38;;;;;;;;;;342456;28;1420;-58
2023/11/20 00:13:20;;;;;;;6.22;4.35;;;;;;;;;;342474;28;1665;-58
2023/11/20 00:13:31;;;;;;;5.47;4.13;;;;;;;;;;346523;28;1384;-57
2023/11/20 00:13:42;;;;;;;5.80;4.10;;;;;;;;;;344461;28;1269;-58
2023/11/20 00:13:54;;;;;;;5.88;4.10;;;;;;;;;;345245;28;1625;-59
2023/11/20 00:14:05;;;;;;;6.25;4.20;;;;;;;;;;345711;28;1577;-58
2023/11/20 00:14:16;;;;;;;6.90;4.10;;;;;;;;;;345216;28;1511;-59
2023/11/20 00:14:27;;;;;;;7.22;4.13;;;;;;;;;;343844;28;1493;-58
2023/11/20 00:14:38;;;;;;;6.68;3.80;;;;;;;;;;342431;28;1502;-58
2023/11/20 00:14:50;;;;;;;7.07;4.18;;;;;;;;;;343801;28;1515;-58
2023/11/20 00:15:02;;;;;;;7.65;4.40;;;;;;;;;;347908;28;1590;-58
2023/11/20 00:15:13;;;;;;;8.05;4.55;;;;;;;;;;345228;28;1686;-58
2023/11/20 00:15:24;;;;;;;7.47;4.40;;;;;;;;;;346453;28;1385;-58
2023/11/20 00:15:36;;;;;;;6.35;4.30;;;;;;;;;;343822;28;1521;-58
2023/11/20 00:15:48;;;;;;;5.90;4.30;;;;;;;;;;345017;28;1439;-59
2023/11/20 00:15:59;;;;;;;5.90;4.20;;;;;;;;;;345167;28;1470;-58
2023/11/20 00:16:11;;;;;;;6.25;4.63;;;;;;;;;;347781;28;1439;-58
2023/11/20 00:16:22;;;;;;;7.45;5.07;;;;;;;;;;345891;28;1637;-58
2023/11/20 00:16:34;;;;;;;7.72;4.82;;;;;;;;;;343233;28;1506;-59
2023/11/20 00:16:45;;;;;;;7.88;4.68;;;;;;;;;;343840;28;1513;-58
2023/11/20 00:16:56;;;;;;;7.15;4.50;;;;;;;;;;344894;28;1646;-58
2023/11/20 00:17:08;;;;;;;6.32;4.50;;;;;;;;;;345225;28;1644;-59
2023/11/20 00:17:19;;;;;;;6.07;4.50;;;;;;;;;;342493;28;1393;-58
2023/11/20 00:17:30;;;;;;;6.45;4.75;;;;;;;;;;341028;29;1686;-59
2023/11/20 00:17:41;;;;;;;7.32;5.00;;;;;;;;;;343283;28;1410;-58
2023/11/20 00:17:52;;;;;;;7.15;5.00;;;;;;;;;;343765;28;1557;-58
2023/11/20 00:18:05;;;;;;;7.75;4.88;;;;;;;;;;344998;28;1571;-58
2023/11/20 00:18:16;;;;;;;7.18;4.63;;;;;;;;;;345105;28;1344;-59
2023/11/20 00:18:27;;;;;;;6.32;4.60;;;;;;;;;;345212;28;1518;-58
2023/11/20 00:18:38;;;;;;;6.70;4.57;;;;;;;;;;343092;28;1418;-58
2023/11/20 00:18:50;;;;;;;7.68;4.57;;;;;;;;;;346603;28;1549;-58
2023/11/20 00:19:03;;;;;;;8.82;4.65;;;;;;;;;;345152;28;1483;-58
2023/11/20 00:19:17;;;;;;;7.97;4.63;;;;;;;;;;343789;28;1485;-58
2023/11/20 00:19:28;;;;;;;7.15;4.50;;;;;;;;;;345118;28;1353;-59
2023/11/20 00:19:39;;;;;;;7.00;4.50;;;;;;;;;;342491;28;1358;-58
2023/11/20 00:19:50;;;;;;;6.53;4.57;;;;;;;;;;343741;28;1421;-58
2023/11/20 00:20:01;;;;;;;5.85;4.63;;;;;;;;;;346805;28;1600;-58
2023/11/20 00:20:13;;;;;;;6.30;4.82;;;;;;;;;;345898;28;1405;-58
2023/11/20 00:20:24;;;;;;;7.60;4.95;;;;;;;;;;345172;28;1290;-58
2023/11/20 00:20:37;;;;;;;8.10;5.05;;;;;;;;;;342581;28;1572;-58
2023/11/20 00:20:48;;;;;;;7.95;4.80;;;;;;;;;;341222;29;1275;-58
2023/11/20 00:20:59;;;;;;;7.25;4.93;;;;;;;;;;341518;28;1960;-59
2023/11/20 00:21:10;;;;;;;7.20;4.78;;;;;;;;;;343974;28;1286;-58
2023/11/20 00:21:21;;;;;;;7.53;4.90;;;;;;;;;;343717;28;1986;-58
2023/11/20 00:21:32;;;;;;;7.35;4.93;;;;;;;;;;346572;28;1306;-58
2023/11/20 00:21:43;;;;;;;7.18;5.13;;;;;;;;;;346566;28;1627;-58
2023/11/20 00:21:55;;;;;;;7.35;5.18;;;;;;;;;;345031;28;1648;-58
2023/11/20 00:22:06;;;;;;;7.32;4.80;;;;;;;;;;343836;28;1438;-59
2023/11/20 00:22:17;;;;;;;6.60;4.60;;;;;;;;;;342432;28;1277;-58
2023/11/20 00:22:28;;;;;;;7.07;4.82;;;;;;;;;;343806;28;1480;-58
2023/11/20 00:22:39;;;;;;;7.15;4.90;;;;;;;;;;343818;28;1286;-58
2023/11/20 00:22:50;;;;;;;7.57;4.88;;;;;;;;;;343230;28;1708;-58
2023/11/20 00:23:02;;;;;;;7.55;4.95;;;;;;;;;;343883;28;1379;-58
2023/11/20 00:23:13;;;;;;;7.47;4.80;;;;;;;;;;342260;28;1412;-58
2023/11/20 00:23:24;;;;;;;6.80;4.75;;;;;;;;;;343596;28;1751;-58
2023/11/20 00:23:35;;;;;;;6.75;4.80;;;;;;;;;;345259;28;1442;-58
2023/11/20 00:23:46;;;;;;;7.40;5.15;;;;;;;;;;345159;28;1285;-58
2023/11/20 00:23:58;;;;;;;8.43;5.57;;;;;;;;;;342617;28;1625;-59
2023/11/20 00:24:09;;;;;;;9.15;5.95;;;;;;;;;;343549;28;1568;-58
2023/11/20 00:24:21;;;;;;;9.30;6.20;;;;;;;;;;343806;28;1124;-58
2023/11/20 00:24:32;;;;;;;8.77;6.28;;;;;;;;;;345416;28;1332;-58
2023/11/20 00:24:43;;;;;;;8.60;6.07;;;;;;;;;;343694;28;1274;-58
2023/11/20 00:24:56;;;;;;;8.68;5.90;;;;;;;;;;343895;28;1337;-58
2023/11/20 00:25:07;;;;;;;9.30;5.97;;;;;;;;;;344196;28;1565;-58
2023/11/20 00:25:18;;;;;;;8.45;5.60;;;;;;;;;;345205;28;1297;-58
2023/11/20 00:25:29;;;;;;;7.93;5.53;;;;;;;;;;345270;28;1305;-58
2023/11/20 00:25:40;;;;;;;7.22;5.32;;;;;;;;;;343820;28;1293;-58
2023/11/20 00:25:51;;;;;;;7.50;5.45;;;;;;;;;;343799;28;1274;-58
2023/11/20 00:26:02;;;;;;;7.45;5.40;;;;;;;;;;343023;28;1589;-58
2023/11/20 00:26:14;;;;;;;7.30;5.15;;;;;;;;;;344255;28;1473;-58
2023/11/20 00:26:25;;;;;;;7.97;5.05;;;;;;;;;;343845;28;1507;-58
2023/11/20 00:26:37;;;;;;;9.43;5.22;;;;;;;;;;343821;28;1245;-58
2023/11/20 00:26:48;;;;;;;8.95;5.10;;;;;;;;;;343775;28;1309;-58
2023/11/20 00:26:59;;;;;;;8.10;5.00;;;;;;;;;;342514;28;1541;-58
2023/11/20 00:27:10;;;;;;;7.72;5.07;;;;;;;;;;346500;28;1224;-58
2023/11/20 00:27:21;;;;;;;8.15;5.10;;;;;;;;;;343800;28;1304;-58
2023/11/20 00:27:32;;;;;;;7.90;4.95;;;;;;;;;;345296;28;1283;-59
2023/11/20 00:27:44;;;;;;;7.15;4.60;;;;;;;;;;345294;28;1818;-58
2023/11/20 00:27:55;;;;;;;6.43;4.60;;;;;;;;;;345241;28;930;-58
2023/11/20 00:28:06;;;;;;;7.72;4.78;;;;;;;;;;345132;28;1598;-58
2023/11/20 00:28:17;;;;;;;8.05;4.70;;;;;;;;;;345052;28;1605;-58
2023/11/20 00:28:28;;;;;;;7.55;4.63;;;;;;;;;;342506;28;1261;-58
2023/11/20 00:28:41;;;;;;;7.97;4.50;;;;;;;;;;343737;28;1385;-58
2023/11/20 00:28:53;;;;;;;7.70;4.75;;;;;;;;;;343845;28;977;-58
2023/11/20 00:29:05;;;;;;;7.32;4.95;;;;;;;;;;344647;28;1519;-58
2023/11/20 00:29:16;;;;;;;7.85;5.20;;;;;;;;;;344513;28;1625;-58
2023/11/20 00:29:27;;;;;;;8.15;5.43;;;;;;;;;;345191;28;1361;-58
2023/11/20 00:29:39;;;;;;;7.93;5.32;;;;;;;;;;343723;28;1273;-58
2023/11/20 00:29:50;;;;;;;7.28;4.85;;;;;;;;;;346482;28;1463;-58
2023/11/20 00:30:01;;;;;;;6.85;4.53;;;;;;;;;;344835;28;1529;-58
2023/11/20 00:30:12;;;;;;;6.82;4.55;;;;;;;;;;343872;28;1445;-58
2023/11/20 00:30:23;;;;;;;6.85;4.70;;;;;;;;;;343806;28;1294;-58
2023/11/20 00:30:34;;;;;;;6.50;4.65;;;;;;;;;;341208;29;1274;-58
2023/11/20 00:30:45;;;;;;;6.93;4.70;;;;;;;;;;345182;28;1359;-58
2023/11/20 00:30:56;;;;;;;8.93;4.95;;;;;;;;;;346254;28;1281;-58
2023/11/20 00:31:14;;;;;;;9.40;5.05;;;;;;;;;;345822;28;1603;-58
2023/11/20 00:31:25;;;;;;;8.02;4.97;;;;;;;;;;344828;28;1489;-58
2023/11/20 00:31:37;;;;;;;8.57;4.90;;;;;;;;;;344999;28;1434;-58
2023/11/20 00:31:48;;;;;;;7.90;4.90;;;;;;;;;;342557;28;1342;-59
2023/11/20 00:31:59;;;;;;;6.85;4.68;;;;;;;;;;345200;28;1561;-58
2023/11/20 00:32:10;;;;;;;6.20;4.70;;;;;;;;;;346601;28;1249;-59
2023/11/20 00:32:21;;;;;;;6.78;4.68;;;;;;;;;;346533;28;1550;-58
2023/11/20 00:32:32;;;;;;;6.72;4.50;;;;;;;;;;345237;28;1280;-58
2023/11/20 00:32:43;;;;;;;6.22;4.45;;;;;;;;;;345236;28;1335;-58
2023/11/20 00:32:54;;;;;;;6.05;4.47;;;;;;;;;;346565;28;1517;-58
2023/11/20 00:33:05;;;;;;;5.68;4.13;;;;;;;;;;346476;28;1757;-58
2023/11/20 00:33:16;;;;;;;5.75;4.13;;;;;;;;;;345300;28;1606;-58
2023/11/20 00:33:27;;;;;;;5.75;4.25;;;;;;;;;;346460;28;1511;-58
2023/11/20 00:33:39;;;;;;;7.28;4.53;;;;;;;;;;342573;28;1313;-58
2023/11/20 00:33:50;;;;;;;7.78;4.53;;;;;;;;;;343881;28;1335;-58
2023/11/20 00:34:01;;;;;;;8.38;4.85;;;;;;;;;;345329;28;1573;-58
2023/11/20 00:34:12;;;;;;;7.20;4.78;;;;;;;;;;345184;28;1375;-58
2023/11/20 00:34:23;;;;;;;8.50;5.18;;;;;;;;;;343883;28;1328;-58
2023/11/20 00:34:38;;;;;;;8.43;4.90;;;;;;;;;;341193;28;1298;-57
2023/11/20 00:34:49;;;;;;;8.35;4.65;;;;;;;;;;341604;28;1553;-57
2023/11/20 00:35:00;;;;;;;6.68;4.35;;;;;;;;;;344575;28;1767;-58
2023/11/20 00:35:14;;;;;;;6.05;4.40;;;;;;;;;;345331;28;1204;-58
2023/11/20 00:35:25;;;;;;;6.93;4.80;;;;;;;;;;343825;28;1400;-58
2023/11/20 00:35:37;;;;;;;7.05;4.93;;;;;;;;;;342455;28;1329;-58
2023/11/20 00:35:48;;;;;;;6.95;4.72;;;;;;;;;;342602;28;1421;-56
2023/11/20 00:35:59;;;;;;;6.70;4.75;;;;;;;;;;345176;28;1210;-57
2023/11/20 00:36:10;;;;;;;6.75;4.68;;;;;;;;;;345193;28;1473;-57
2023/11/20 00:36:21;;;;;;;6.78;4.78;;;;;;;;;;343785;28;1544;-57
2023/11/20 00:36:32;;;;;;;6.97;4.70;;;;;;;;;;345015;28;1976;-57
2023/11/20 00:36:43;;;;;;;6.75;4.55;;;;;;;;;;342638;28;1387;-57
2023/11/20 00:36:55;;;;;;;6.60;4.40;;;;;;;;;;345242;28;941;-57
2023/11/20 00:37:06;;;;;;;6.18;4.30;;;;;;;;;;343167;28;1561;-57
2023/11/20 00:37:18;;;;;;;6.35;4.40;;;;;;;;;;345249;28;1167;-58
2023/11/20 00:37:29;;;;;;;6.50;4.50;;;;;;;;;;345132;28;1412;-57
2023/11/20 00:37:41;;;;;;;6.25;4.40;;;;;;;;;;342476;28;1401;-57
2023/11/20 00:37:52;;;;;;;6.78;4.50;;;;;;;;;;345192;28;1286;-57
2023/11/20 00:38:03;;;;;;;6.57;4.63;;;;;;;;;;344587;28;1738;-57
2023/11/20 00:38:14;;;;;;;6.93;4.82;;;;;;;;;;343880;28;1267;-57
2023/11/20 00:38:26;;;;;;;7.03;4.95;;;;;;;;;;346233;28;1529;-57
2023/11/20 00:38:37;;;;;;;6.35;4.57;;;;;;;;;;343785;28;1776;-57
2023/11/20 00:38:48;;;;;;;6.05;4.60;;;;;;;;;;347974;28;1300;-57
2023/11/20 00:39:00;;;;;;;6.13;4.78;;;;;;;;;;349103;28;1679;-57
2023/11/20 00:39:11;;;;;;;6.53;4.90;;;;;;;;;;348944;28;1533;-57
2023/11/20 00:39:22;;;;;;;6.95;4.90;;;;;;;;;;347964;28;1272;-57
2023/11/20 00:39:33;;;;;;;7.20;5.05;;;;;;;;;;347237;28;1672;-57
2023/11/20 00:39:44;;;;;;;8.00;4.88;;;;;;;;;;343973;28;1362;-57
2023/11/20 00:39:55;;;;;;;8.23;4.63;;;;;;;;;;342514;28;1533;-57
2023/11/20 00:40:07;;;;;;;7.25;4.53;;;;;;;;;;346564;28;1613;-57
2023/11/20 00:40:18;;;;;;;7.82;4.90;;;;;;;;;;346660;28;1465;-57
2023/11/20 00:40:29;;;;;;;8.95;5.05;;;;;;;;;;346571;28;1307;-58
2023/11/20 00:40:41;;;;;;;8.95;4.95;;;;;;;;;;343859;28;1277;-57
2023/11/20 00:40:52;;;;;;;7.97;5.05;;;;;;;;;;342558;28;1285;-57
2023/11/20 00:41:04;;;;;;;9.00;5.22;;;;;;;;;;344113;28;1475;-58
2023/11/20 00:41:15;;;;;;;8.55;5.10;;;;;;;;;;345128;28;1626;-58
2023/11/20 00:41:30;;;;;;;8.13;4.63;;;;;;;;;;345169;28;1912;-57
2023/11/20 00:41:41;;;;;;;7.15;4.55;;;;;;;;;;345174;28;1316;-57
2023/11/20 00:41:53;;;;;;;6.78;4.60;;;;;;;;;;345281;28;1814;-57
2023/11/20 00:42:04;;;;;;;7.88;4.80;;;;;;;;;;342480;28;1545;-58
2023/11/20 00:42:15;;;;;;;8.38;4.97;;;;;;;;;;345145;28;1514;-57
2023/11/20 00:42:26;;;;;;;9.38;5.20;;;;;;;;;;346567;28;1416;-57
2023/11/20 00:42:37;;;;;;;7.88;5.07;;;;;;;;;;346589;28;1433;-57
2023/11/20 00:42:49;;;;;;;7.32;4.88;;;;;;;;;;348054;28;1648;-58
2023/11/20 00:43:00;;;;;;;6.22;4.72;;;;;;;;;;345215;28;1306;-57
2023/11/20 00:43:13;;;;;;;6.22;4.75;;;;;;;;;;345218;28;1518;-57
2023/11/20 00:43:24;;;;;;;6.90;5.00;;;;;;;;;;343860;28;1510;-57
2023/11/20 00:43:35;;;;;;;7.15;4.78;;;;;;;;;;342440;28;1314;-57
2023/11/20 00:43:46;;;;;;;7.18;4.78;;;;;;;;;;343902;28;1500;-58
2023/11/20 00:43:59;;;;;;;6.88;4.60;;;;;;;;;;346566;28;1309;-57
2023/11/20 00:44:13;;;;;;;6.82;4.60;;;;;;;;;;346497;28;1359;-58
2023/11/20 00:44:24;;;;;;;7.40;4.78;;;;;;;;;;346517;28;1517;-58
2023/11/20 00:44:36;;;;;;;7.68;4.95;;;;;;;;;;347955;28;1478;-58
2023/11/20 00:44:47;;;;;;;7.78;5.00;;;;;;;;;;346486;28;1293;-57
2023/11/20 00:44:58;;;;;;;7.10;4.82;;;;;;;;;;346431;28;1765;-58
2023/11/20 00:45:09;;;;;;;9.20;4.85;;;;;;;;;;344041;28;1548;-58
2023/11/20 00:45:20;;;;;;;9.27;4.85;;;;;;;;;;341187;28;1492;-57
2023/11/20 00:45:31;;;;;;;8.93;4.78;;;;;;;;;;343902;28;1318;-57
2023/11/20 00:45:43;;;;;;;6.47;4.70;;;;;;;;;;343814;28;1451;-57
2023/11/20 00:45:54;;;;;;;6.28;4.60;;;;;;;;;;345081;28;1789;-57
2023/11/20 00:46:05;;;;;;;6.75;4.75;;;;;;;;;;345004;28;1948;-57
2023/11/20 00:46:16;;;;;;;6.68;4.45;;;;;;;;;;342503;28;1371;-57
2023/11/20 00:46:27;;;;;;;6.82;4.65;;;;;;;;;;343431;28;1577;-58
2023/11/20 00:46:38;;;;;;;8.73;4.93;;;;;;;;;;344744;28;1315;-59
2023/11/20 00:46:49;;;;;;;8.57;5.13;;;;;;;;;;346607;28;1477;-57
2023/11/20 00:47:01;;;;;;;7.60;4.78;;;;;;;;;;345257;28;1544;-57
2023/11/20 00:47:12;;;;;;;6.57;4.63;;;;;;;;;;343311;28;2002;-57
2023/11/20 00:47:23;;;;;;;7.00;4.82;;;;;;;;;;343909;28;1284;-57
2023/11/20 00:47:34;;;;;;;7.13;4.82;;;;;;;;;;346641;28;1269;-57
2023/11/20 00:47:45;;;;;;;7.43;4.97;;;;;;;;;;345162;28;1726;-57
2023/11/20 00:47:57;;;;;;;8.63;5.07;;;;;;;;;;345003;28;1979;-58
2023/11/20 00:48:08;;;;;;;8.27;5.10;;;;;;;;;;344481;28;1432;-58
2023/11/20 00:48:19;;;;;;;8.70;5.10;;;;;;;;;;343877;28;1507;-57
2023/11/20 00:48:31;;;;;;;8.75;5.15;;;;;;;;;;341065;28;1316;-57
2023/11/20 00:48:44;;;;;;;9.20;5.30;;;;;;;;;;343892;28;1329;-57
2023/11/20 00:48:55;;;;;;;7.75;5.18;;;;;;;;;;343949;28;1279;-57
2023/11/20 00:49:06;;;;;;;7.30;4.97;;;;;;;;;;343728;28;1609;-57
2023/11/20 00:49:17;;;;;;;7.70;5.13;;;;;;;;;;344322;28;1495;-58
2023/11/20 00:49:28;;;;;;;7.00;5.00;;;;;;;;;;345312;28;1460;-58
2023/11/20 00:49:39;;;;;;;7.45;5.00;;;;;;;;;;345153;28;1577;-58
2023/11/20 00:49:50;;;;;;;8.75;5.13;;;;;;;;;;343947;28;1421;-57
2023/11/20 00:50:02;;;;;;;7.93;4.72;;;;;;;;;;346590;28;1429;-57
2023/11/20 00:50:13;;;;;;;7.47;4.72;;;;;;;;;;345106;28;1739;-57
2023/11/20 00:50:24;;;;;;;7.13;4.78;;;;;;;;;;346624;28;1519;-57
2023/11/20 00:50:35;;;;;;;7.93;4.95;;;;;;;;;;346599;28;1300;-56
2023/11/20 00:50:46;;;;;;;7.72;4.75;;;;;;;;;;346667;28;1180;-56
2023/11/20 00:50:57;;;;;;;7.20;4.75;;;;;;;;;;344419;28;1412;-58
2023/11/20 00:51:08;;;;;;;7.13;4.90;;;;;;;;;;344967;28;1449;-59
2023/11/20 00:51:19;;;;;;;6.95;4.85;;;;;;;;;;343913;28;1485;-56
2023/11/20 00:51:31;;;;;;;7.03;4.57;;;;;;;;;;345158;28;1390;-56
2023/11/20 00:51:42;;;;;;;6.70;4.45;;;;;;;;;;345268;28;1281;-56
2023/11/20 00:51:53;;;;;;;7.10;4.60;;;;;;;;;;345158;28;1582;-57
2023/11/20 00:52:04;;;;;;;8.20;4.78;;;;;;;;;;345080;28;1844;-57
2023/11/20 00:52:15;;;;;;;8.95;4.72;;;;;;;;;;343503;28;1538;-56
2023/11/20 00:52:29;;;;;;;7.63;4.63;;;;;;;;;;342532;28;1586;-56
2023/11/20 00:52:41;;;;;;;6.68;4.68;;;;;;;;;;342265;28;2123;-57
2023/11/20 00:52:52;;;;;;;6.82;4.90;;;;;;;;;;341327;29;1267;-57
2023/11/20 00:53:03;;;;;;;7.65;5.15;;;;;;;;;;342504;28;1289;-57
2023/11/20 00:53:14;;;;;;;7.13;4.82;;;;;;;;;;345227;28;1696;-57
2023/11/20 00:53:25;;;;;;;6.95;4.53;;;;;;;;;;345142;28;1412;-57
2023/11/20 00:53:36;;;;;;;6.53;4.30;;;;;;;;;;346495;28;1317;-57
2023/11/20 00:53:49;;;;;;;6.72;4.43;;;;;;;;;;346602;28;1349;-57
2023/11/20 00:54:00;;;;;;;6.43;4.63;;;;;;;;;;345100;28;1440;-57
2023/11/20 00:54:11;;;;;;;7.43;5.13;;;;;;;;;;340411;28;1540;-57
2023/11/20 00:54:22;;;;;;;7.68;5.03;;;;;;;;;;343942;28;1265;-57
2023/11/20 00:54:33;;;;;;;7.63;5.20;;;;;;;;;;345089;28;1276;-57
2023/11/20 00:54:45;;;;;;;7.00;4.97;;;;;;;;;;345260;28;1273;-57
2023/11/20 00:54:56;;;;;;;8.25;4.88;;;;;;;;;;345190;28;1410;-57
2023/11/20 00:55:10;;;;;;;7.68;4.70;;;;;;;;;;345246;28;1524;-58
2023/11/20 00:55:22;;;;;;;8.07;4.90;;;;;;;;;;343893;28;1385;-57
2023/11/20 00:55:33;;;;;;;8.60;5.13;;;;;;;;;;342600;28;1389;-57
2023/11/20 00:55:44;;;;;;;8.57;4.97;;;;;;;;;;342363;28;1818;-58
2023/11/20 00:55:55;;;;;;;7.10;4.78;;;;;;;;;;342379;28;2346;-57
2023/11/20 00:56:06;;;;;;;6.78;4.70;;;;;;;;;;342336;28;1437;-57
2023/11/20 00:56:19;;;;;;;6.68;4.60;;;;;;;;;;342562;28;1594;-57
2023/11/20 00:56:30;;;;;;;7.97;4.57;;;;;;;;;;342425;28;1906;-57
2023/11/20 00:56:41;;;;;;;8.68;4.75;;;;;;;;;;342406;28;1259;-58
2023/11/20 00:56:52;;;;;;;8.57;4.97;;;;;;;;;;342606;28;1595;-57
2023/11/20 00:57:03;;;;;;;7.82;4.70;;;;;;;;;;341111;29;1571;-57
2023/11/20 00:57:14;;;;;;;6.85;4.63;;;;;;;;;;341858;28;1461;-57
2023/11/20 00:57:25;;;;;;;6.47;4.78;;;;;;;;;;343499;28;1450;-57
2023/11/20 00:57:37;;;;;;;6.47;4.85;;;;;;;;;;341187;29;1446;-58
2023/11/20 00:57:48;;;;;;;6.47;4.80;;;;;;;;;;341184;28;1364;-58
2023/11/20 00:57:59;;;;;;;6.35;4.70;;;;;;;;;;342540;28;1528;-57
2023/11/20 00:58:11;;;;;;;7.20;4.75;;;;;;;;;;341668;28;1559;-58
2023/11/20 00:58:22;;;;;;;8.70;4.95;;;;;;;;;;343809;28;1462;-57
2023/11/20 00:58:33;;;;;;;9.00;5.07;;;;;;;;;;345255;28;1545;-57
2023/11/20 00:58:44;;;;;;;8.05;5.00;;;;;;;;;;343861;28;1326;-58
2023/11/20 00:58:55;;;;;;;7.00;4.72;;;;;;;;;;343783;28;1444;-56
2023/11/20 00:59:06;;;;;;;7.72;5.00;;;;;;;;;;344022;28;2049;-58
2023/11/20 00:59:17;;;;;;;8.82;5.00;;;;;;;;;;346263;28;1606;-57
2023/11/20 00:59:29;;;;;;;8.95;5.00;;;;;;;;;;346542;28;978;-59
2023/11/20 00:59:40;;;;;;;7.75;4.75;;;;;;;;;;345187;28;1387;-57
2023/11/20 00:59:52;;;;;;;7.53;4.80;;;;;;;;;;345211;28;1392;-58
2023/11/20 01:00:03;;;;;;;7.78;4.82;;;;;;;;;;343775;28;1340;-57
2023/11/20 01:00:15;;;;;;;9.00;4.80;;;;;;;;;;347601;28;1551;-58
2023/11/20 01:00:27;;;;;;;8.85;4.63;;;;;;;;;;346630;28;1273;-57
2023/11/20 01:00:38;;;;;;;8.65;4.55;;;;;;;;;;347521;28;1706;-58
2023/11/20 01:00:51;;;;;;;7.68;4.75;;;;;;;;;;343898;28;1437;-57
2023/11/20 01:01:03;;;;;;;6.93;4.68;;;;;;;;;;345233;28;1618;-56
2023/11/20 01:01:14;;;;;;;6.95;4.80;;;;;;;;;;344627;28;1543;-57
2023/11/20 01:01:25;;;;;;;6.63;4.75;;;;;;;;;;345147;28;1991;-57
2023/11/20 01:01:37;;;;;;;6.75;4.72;;;;;;;;;;343822;28;1553;-57
2023/11/20 01:01:48;;;;;;;6.50;4.50;;;;;;;;;;342504;28;2185;-57
2023/11/20 01:01:59;;;;;;;6.53;4.60;;;;;;;;;;343867;28;1345;-59
2023/11/20 01:02:10;;;;;;;7.50;4.60;;;;;;;;;;342407;28;1494;-57
2023/11/20 01:02:21;;;;;;;8.07;4.80;;;;;;;;;;342738;28;2057;-57
2023/11/20 01:02:33;;;;;;;8.10;4.80;;;;;;;;;;341235;29;1505;-57
2023/11/20 01:02:44;;;;;;;7.40;4.70;;;;;;;;;;345103;28;1497;-58
2023/11/20 01:02:55;;;;;;;7.88;4.93;;;;;;;;;;346612;28;1305;-57
2023/11/20 01:03:06;;;;;;;7.38;4.95;;;;;;;;;;345233;28;1447;-57
2023/11/20 01:03:17;;;;;;;6.45;4.75;;;;;;;;;;346546;28;1445;-57
2023/11/20 01:03:28;;;;;;;6.22;4.72;;;;;;;;;;346542;28;1507;-58
2023/11/20 01:03:40;;;;;;;6.40;4.68;;;;;;;;;;343283;28;1673;-59
2023/11/20 01:03:51;;;;;;;7.43;5.10;;;;;;;;;;345119;28;2335;-59
2023/11/20 01:04:03;;;;;;;7.65;5.20;;;;;;;;;;347735;28;1779;-57
2023/11/20 01:04:14;;;;;;;7.97;5.32;;;;;;;;;;345170;28;1601;-58
2023/11/20 01:04:25;;;;;;;7.10;4.85;;;;;;;;;;343912;28;966;-57
2023/11/20 01:04:37;;;;;;;6.05;4.47;;;;;;;;;;343789;28;1329;-57
2023/11/20 01:04:48;;;;;;;5.80;4.70;;;;;;;;;;342563;28;1483;-58
2023/11/20 01:04:59;;;;;;;6.30;4.88;;;;;;;;;;346542;28;1396;-58
2023/11/20 01:05:11;;;;;;;6.85;4.95;;;;;;;;;;345091;28;1661;-57
2023/11/20 01:05:22;;;;;;;6.97;4.90;;;;;;;;;;343944;28;1297;-57
2023/11/20 01:05:33;;;;;;;7.47;4.95;;;;;;;;;;345123;28;1479;-57
2023/11/20 01:05:45;;;;;;;7.18;4.55;;;;;;;;;;345125;28;1352;-57
2023/11/20 01:05:56;;;;;;;7.90;4.60;;;;;;;;;;342557;28;1353;-57
2023/11/20 01:06:08;;;;;;;7.38;4.65;;;;;;;;;;345185;28;1284;-61
2023/11/20 01:06:20;;;;;;;8.32;4.85;;;;;;;;;;345740;28;1549;-59
2023/11/20 01:06:31;;;;;;;7.78;4.90;;;;;;;;;;346591;28;1061;-61
2023/11/20 01:06:43;;;;;;;7.82;4.70;;;;;;;;;;347896;28;1581;-61
2023/11/20 01:06:54;;;;;;;7.22;4.68;;;;;;;;;;345261;28;1294;-61
2023/11/20 01:07:05;;;;;;;6.85;4.47;;;;;;;;;;343754;28;1267;-62
2023/11/20 01:07:16;;;;;;;6.40;4.68;;;;;;;;;;343728;28;1447;-60
2023/11/20 01:07:27;;;;;;;7.07;5.00;;;;;;;;;;342490;28;1273;-61
2023/11/20 01:07:38;;;;;;;7.20;5.05;;;;;;;;;;342431;28;1219;-61
2023/11/20 01:07:50;;;;;;;7.82;5.28;;;;;;;;;;342597;28;1486;-61
2023/11/20 01:08:01;;;;;;;8.68;5.20;;;;;;;;;;342473;28;1331;-61
2023/11/20 01:08:12;;;;;;;8.30;5.00;;;;;;;;;;343739;28;1672;-61
2023/11/20 01:08:23;;;;;;;7.78;4.70;;;;;;;;;;343907;28;1325;-61
2023/11/20 01:08:34;;;;;;;6.40;4.50;;;;;;;;;;341124;29;1254;-61
2023/11/20 01:08:45;;;;;;;6.05;4.30;;;;;;;;;;343632;28;1432;-61
2023/11/20 01:08:56;;;;;;;6.13;4.30;;;;;;;;;;346525;28;1328;-61
2023/11/20 01:09:07;;;;;;;6.15;4.30;;;;;;;;;;345204;28;1279;-61
2023/11/20 01:09:19;;;;;;;6.75;4.68;;;;;;;;;;345330;28;1403;-61
2023/11/20 01:09:30;;;;;;;7.25;4.82;;;;;;;;;;346446;28;1479;-60
2023/11/20 01:09:41;;;;;;;7.70;4.82;;;;;;;;;;342461;28;1345;-60
2023/11/20 01:09:52;;;;;;;9.07;4.90;;;;;;;;;;346547;28;1418;-61
2023/11/20 01:10:05;;;;;;;9.65;5.07;;;;;;;;;;346506;28;1375;-61
2023/11/20 01:10:16;;;;;;;8.73;4.82;;;;;;;;;;345983;28;2207;-61
2023/11/20 01:10:27;;;;;;;7.28;4.63;;;;;;;;;;343862;28;1577;-61